sensor_id;sensor_type;location;lat;lon;timestamp;P1;durP1;ratioP1;P2;durP2;ratioP2
23250;SDS011;11794;49.730;10.088;2023-09-07T00:02:13;5.20;;;1.40;;
23250;SDS011;11794;49.730;10.088;2023-09-07T00:04:39;5.97;;;1.40;;
23250;SDS011;11794;49.730;10.088;2023-09-07T00:07:04;4.97;;;1.50;;
23250;SDS011;11794;49.730;10.088;2023-09-07T00:09:30;4.70;;;1.30;;
23250;SDS011;11794;49.730;10.088;2023-09-07T00:11:55;5.77;;;1.43;;
23250;SDS011;11794;49.730;10.088;2023-09-07T00:14:21;7.20;;;1.50;;
23250;SDS011;11794;49.730;10.088;2023-09-07T00:16:46;6.07;;;1.40;;
23250;SDS011;11794;49.730;10.088;2023-09-07T00:19:12;5.15;;;1.40;;
23250;SDS011;11794;49.730;10.088;2023-09-07T00:21:37;5.57;;;1.63;;
23250;SDS011;11794;49.730;10.088;2023-09-07T00:24:03;4.93;;;1.37;;
23250;SDS011;11794;49.730;10.088;2023-09-07T00:26:30;4.30;;;1.17;;
23250;SDS011;11794;49.730;10.088;2023-09-07T00:28:56;4.60;;;1.60;;
23250;SDS011;11794;49.730;10.088;2023-09-07T00:31:21;4.93;;;1.43;;
23250;SDS011;11794;49.730;10.088;2023-09-07T00:33:47;5.32;;;1.50;;
23250;SDS011;11794;49.730;10.088;2023-09-07T00:36:12;5.17;;;1.50;;
23250;SDS011;11794;49.730;10.088;2023-09-07T00:38:38;4.90;;;1.20;;
23250;SDS011;11794;49.730;10.088;2023-09-07T00:41:03;4.72;;;1.50;;
23250;SDS011;11794;49.730;10.088;2023-09-07T00:43:29;4.70;;;1.40;;
23250;SDS011;11794;49.730;10.088;2023-09-07T00:45:55;6.27;;;1.50;;
23250;SDS011;11794;49.730;10.088;2023-09-07T00:48:20;4.80;;;1.40;;
23250;SDS011;11794;49.730;10.088;2023-09-07T00:50:46;5.68;;;1.40;;
23250;SDS011;11794;49.730;10.088;2023-09-07T00:53:13;4.85;;;1.58;;
23250;SDS011;11794;49.730;10.088;2023-09-07T00:55:39;4.38;;;1.30;;
23250;SDS011;11794;49.730;10.088;2023-09-07T00:58:05;4.80;;;1.30;;
23250;SDS011;11794;49.730;10.088;2023-09-07T01:00:31;4.80;;;1.50;;
23250;SDS011;11794;49.730;10.088;2023-09-07T01:02:58;5.00;;;1.67;;
23250;SDS011;11794;49.730;10.088;2023-09-07T01:05:27;4.75;;;1.48;;
23250;SDS011;11794;49.730;10.088;2023-09-07T01:08:01;5.28;;;1.60;;
23250;SDS011;11794;49.730;10.088;2023-09-07T01:10:43;5.95;;;1.58;;
23250;SDS011;11794;49.730;10.088;2023-09-07T01:13:09;5.23;;;1.80;;
23250;SDS011;11794;49.730;10.088;2023-09-07T01:15:34;4.90;;;1.53;;
23250;SDS011;11794;49.730;10.088;2023-09-07T01:18:00;5.20;;;1.70;;
23250;SDS011;11794;49.730;10.088;2023-09-07T01:20:27;5.88;;;1.70;;
23250;SDS011;11794;49.730;10.088;2023-09-07T01:22:55;5.88;;;1.58;;
23250;SDS011;11794;49.730;10.088;2023-09-07T01:25:21;6.30;;;2.00;;
23250;SDS011;11794;49.730;10.088;2023-09-07T01:27:46;4.95;;;1.48;;
23250;SDS011;11794;49.730;10.088;2023-09-07T01:30:13;5.47;;;1.60;;
23250;SDS011;11794;49.730;10.088;2023-09-07T01:32:38;4.57;;;1.50;;
23250;SDS011;11794;49.730;10.088;2023-09-07T01:35:04;5.68;;;1.63;;
23250;SDS011;11794;49.730;10.088;2023-09-07T01:37:31;5.13;;;1.53;;
23250;SDS011;11794;49.730;10.088;2023-09-07T01:39:57;5.18;;;1.60;;
23250;SDS011;11794;49.730;10.088;2023-09-07T01:42:22;7.20;;;1.90;;
23250;SDS011;11794;49.730;10.088;2023-09-07T01:44:48;8.15;;;2.42;;
23250;SDS011;11794;49.730;10.088;2023-09-07T01:47:13;5.63;;;1.80;;
23250;SDS011;11794;49.730;10.088;2023-09-07T01:49:39;7.90;;;1.90;;
23250;SDS011;11794;49.730;10.088;2023-09-07T01:52:04;5.35;;;1.65;;
23250;SDS011;11794;49.730;10.088;2023-09-07T01:54:30;5.77;;;1.80;;
23250;SDS011;11794;49.730;10.088;2023-09-07T01:56:56;5.20;;;1.85;;
23250;SDS011;11794;49.730;10.088;2023-09-07T01:59:21;6.03;;;1.77;;
23250;SDS011;11794;49.730;10.088;2023-09-07T02:01:46;5.87;;;1.70;;
23250;SDS011;11794;49.730;10.088;2023-09-07T02:04:12;4.95;;;1.50;;
23250;SDS011;11794;49.730;10.088;2023-09-07T02:06:37;6.00;;;1.90;;
23250;SDS011;11794;49.730;10.088;2023-09-07T02:09:04;5.20;;;1.58;;
23250;SDS011;11794;49.730;10.088;2023-09-07T02:11:30;5.67;;;1.90;;
23250;SDS011;11794;49.730;10.088;2023-09-07T02:13:55;5.47;;;1.60;;
23250;SDS011;11794;49.730;10.088;2023-09-07T02:16:21;5.37;;;1.83;;
23250;SDS011;11794;49.730;10.088;2023-09-07T02:18:48;5.53;;;1.70;;
23250;SDS011;11794;49.730;10.088;2023-09-07T02:21:14;5.40;;;1.77;;
23250;SDS011;11794;49.730;10.088;2023-09-07T02:23:40;5.20;;;1.70;;
23250;SDS011;11794;49.730;10.088;2023-09-07T02:26:06;6.33;;;1.63;;
23250;SDS011;11794;49.730;10.088;2023-09-07T02:28:31;6.05;;;1.85;;
23250;SDS011;11794;49.730;10.088;2023-09-07T02:31:03;5.30;;;1.70;;
23250;SDS011;11794;49.730;10.088;2023-09-07T02:33:29;5.00;;;1.60;;
23250;SDS011;11794;49.730;10.088;2023-09-07T02:35:55;6.00;;;1.80;;
23250;SDS011;11794;49.730;10.088;2023-09-07T02:38:20;5.88;;;2.05;;
23250;SDS011;11794;49.730;10.088;2023-09-07T02:40:46;4.80;;;1.30;;
23250;SDS011;11794;49.730;10.088;2023-09-07T02:43:11;5.63;;;1.80;;
23250;SDS011;11794;49.730;10.088;2023-09-07T02:45:37;5.17;;;1.80;;
23250;SDS011;11794;49.730;10.088;2023-09-07T02:48:04;5.70;;;1.70;;
23250;SDS011;11794;49.730;10.088;2023-09-07T02:50:31;5.82;;;1.83;;
23250;SDS011;11794;49.730;10.088;2023-09-07T02:52:57;5.13;;;1.83;;
23250;SDS011;11794;49.730;10.088;2023-09-07T02:55:23;5.27;;;2.00;;
23250;SDS011;11794;49.730;10.088;2023-09-07T02:57:49;5.27;;;1.83;;
23250;SDS011;11794;49.730;10.088;2023-09-07T03:00:14;5.15;;;1.75;;
23250;SDS011;11794;49.730;10.088;2023-09-07T03:02:42;7.17;;;1.90;;
23250;SDS011;11794;49.730;10.088;2023-09-07T03:05:08;5.83;;;2.00;;
23250;SDS011;11794;49.730;10.088;2023-09-07T03:07:34;9.00;;;1.80;;
23250;SDS011;11794;49.730;10.088;2023-09-07T03:09:59;6.40;;;2.17;;
23250;SDS011;11794;49.730;10.088;2023-09-07T03:12:25;5.63;;;1.90;;
23250;SDS011;11794;49.730;10.088;2023-09-07T03:14:51;6.50;;;2.15;;
23250;SDS011;11794;49.730;10.088;2023-09-07T03:17:18;6.47;;;2.20;;
23250;SDS011;11794;49.730;10.088;2023-09-07T03:19:45;5.43;;;1.88;;
23250;SDS011;11794;49.730;10.088;2023-09-07T03:22:11;6.72;;;2.20;;
23250;SDS011;11794;49.730;10.088;2023-09-07T03:24:37;7.10;;;2.40;;
23250;SDS011;11794;49.730;10.088;2023-09-07T03:27:03;6.97;;;2.25;;
23250;SDS011;11794;49.730;10.088;2023-09-07T03:29:29;9.10;;;2.53;;
23250;SDS011;11794;49.730;10.088;2023-09-07T03:31:55;8.45;;;2.00;;
23250;SDS011;11794;49.730;10.088;2023-09-07T03:34:21;5.93;;;2.17;;
23250;SDS011;11794;49.730;10.088;2023-09-07T03:36:46;6.07;;;1.98;;
23250;SDS011;11794;49.730;10.088;2023-09-07T03:39:11;6.17;;;1.93;;
23250;SDS011;11794;49.730;10.088;2023-09-07T03:41:37;6.60;;;2.40;;
23250;SDS011;11794;49.730;10.088;2023-09-07T03:44:03;7.10;;;2.38;;
23250;SDS011;11794;49.730;10.088;2023-09-07T03:46:28;6.07;;;1.90;;
23250;SDS011;11794;49.730;10.088;2023-09-07T03:48:54;5.93;;;2.30;;
23250;SDS011;11794;49.730;10.088;2023-09-07T03:51:19;6.47;;;2.27;;
23250;SDS011;11794;49.730;10.088;2023-09-07T03:53:45;6.13;;;2.23;;
23250;SDS011;11794;49.730;10.088;2023-09-07T03:56:10;7.30;;;2.03;;
23250;SDS011;11794;49.730;10.088;2023-09-07T03:58:36;6.57;;;2.23;;
23250;SDS011;11794;49.730;10.088;2023-09-07T04:01:02;6.65;;;2.10;;
23250;SDS011;11794;49.730;10.088;2023-09-07T04:03:27;5.83;;;2.00;;
23250;SDS011;11794;49.730;10.088;2023-09-07T04:05:53;7.10;;;2.28;;
23250;SDS011;11794;49.730;10.088;2023-09-07T04:08:18;8.20;;;2.10;;
23250;SDS011;11794;49.730;10.088;2023-09-07T04:10:44;6.93;;;1.83;;
23250;SDS011;11794;49.730;10.088;2023-09-07T04:13:09;6.25;;;2.03;;
23250;SDS011;11794;49.730;10.088;2023-09-07T04:15:41;7.63;;;2.10;;
23250;SDS011;11794;49.730;10.088;2023-09-07T04:18:08;6.88;;;1.90;;
23250;SDS011;11794;49.730;10.088;2023-09-07T04:20:37;6.57;;;2.22;;
23250;SDS011;11794;49.730;10.088;2023-09-07T04:23:03;5.57;;;2.08;;
23250;SDS011;11794;49.730;10.088;2023-09-07T04:25:29;6.87;;;2.17;;
23250;SDS011;11794;49.730;10.088;2023-09-07T04:27:54;6.68;;;2.10;;
23250;SDS011;11794;49.730;10.088;2023-09-07T04:30:21;7.40;;;2.50;;
23250;SDS011;11794;49.730;10.088;2023-09-07T04:32:47;6.78;;;2.33;;
23250;SDS011;11794;49.730;10.088;2023-09-07T04:35:13;7.05;;;2.45;;
23250;SDS011;11794;49.730;10.088;2023-09-07T04:37:41;6.30;;;2.00;;
23250;SDS011;11794;49.730;10.088;2023-09-07T04:40:08;6.75;;;2.38;;
23250;SDS011;11794;49.730;10.088;2023-09-07T04:42:34;7.20;;;2.35;;
23250;SDS011;11794;49.730;10.088;2023-09-07T04:44:59;5.50;;;1.97;;
23250;SDS011;11794;49.730;10.088;2023-09-07T04:47:25;7.25;;;2.50;;
23250;SDS011;11794;49.730;10.088;2023-09-07T04:49:50;7.10;;;2.40;;
23250;SDS011;11794;49.730;10.088;2023-09-07T04:52:16;6.70;;;2.17;;
23250;SDS011;11794;49.730;10.088;2023-09-07T04:54:42;6.97;;;2.30;;
23250;SDS011;11794;49.730;10.088;2023-09-07T04:57:08;6.65;;;2.50;;
23250;SDS011;11794;49.730;10.088;2023-09-07T04:59:34;6.80;;;2.33;;
23250;SDS011;11794;49.730;10.088;2023-09-07T05:02:00;8.97;;;2.40;;
23250;SDS011;11794;49.730;10.088;2023-09-07T05:04:28;7.13;;;2.55;;
23250;SDS011;11794;49.730;10.088;2023-09-07T05:06:56;8.75;;;2.50;;
23250;SDS011;11794;49.730;10.088;2023-09-07T05:09:21;7.82;;;2.50;;
23250;SDS011;11794;49.730;10.088;2023-09-07T05:11:48;7.32;;;2.33;;
23250;SDS011;11794;49.730;10.088;2023-09-07T05:14:14;7.37;;;2.30;;
23250;SDS011;11794;49.730;10.088;2023-09-07T05:16:42;9.68;;;3.40;;
23250;SDS011;11794;49.730;10.088;2023-09-07T05:19:08;7.47;;;2.30;;
23250;SDS011;11794;49.730;10.088;2023-09-07T05:21:33;7.87;;;2.80;;
23250;SDS011;11794;49.730;10.088;2023-09-07T05:23:59;8.00;;;2.67;;
23250;SDS011;11794;49.730;10.088;2023-09-07T05:26:24;7.13;;;2.83;;
23250;SDS011;11794;49.730;10.088;2023-09-07T05:28:50;7.10;;;2.45;;
23250;SDS011;11794;49.730;10.088;2023-09-07T05:31:16;7.63;;;2.50;;
23250;SDS011;11794;49.730;10.088;2023-09-07T05:33:41;10.13;;;3.23;;
23250;SDS011;11794;49.730;10.088;2023-09-07T05:36:07;7.07;;;2.60;;
23250;SDS011;11794;49.730;10.088;2023-09-07T05:38:32;6.90;;;2.47;;
23250;SDS011;11794;49.730;10.088;2023-09-07T05:40:58;6.93;;;2.60;;
23250;SDS011;11794;49.730;10.088;2023-09-07T05:43:23;7.90;;;3.00;;
23250;SDS011;11794;49.730;10.088;2023-09-07T05:45:49;6.63;;;2.30;;
23250;SDS011;11794;49.730;10.088;2023-09-07T05:48:14;6.35;;;2.22;;
23250;SDS011;11794;49.730;10.088;2023-09-07T05:50:43;8.50;;;2.63;;
23250;SDS011;11794;49.730;10.088;2023-09-07T05:53:09;8.10;;;2.30;;
23250;SDS011;11794;49.730;10.088;2023-09-07T05:55:35;6.83;;;2.47;;
23250;SDS011;11794;49.730;10.088;2023-09-07T05:58:04;7.07;;;2.20;;
23250;SDS011;11794;49.730;10.088;2023-09-07T06:00:30;8.88;;;3.00;;
23250;SDS011;11794;49.730;10.088;2023-09-07T06:02:56;8.25;;;3.10;;
23250;SDS011;11794;49.730;10.088;2023-09-07T06:05:22;7.73;;;2.70;;
23250;SDS011;11794;49.730;10.088;2023-09-07T06:07:48;8.68;;;3.30;;
23250;SDS011;11794;49.730;10.088;2023-09-07T06:10:14;6.95;;;2.72;;
23250;SDS011;11794;49.730;10.088;2023-09-07T06:12:39;8.00;;;2.53;;
23250;SDS011;11794;49.730;10.088;2023-09-07T06:15:05;6.97;;;3.00;;
23250;SDS011;11794;49.730;10.088;2023-09-07T06:17:32;7.55;;;2.95;;
23250;SDS011;11794;49.730;10.088;2023-09-07T06:19:57;9.27;;;3.27;;
23250;SDS011;11794;49.730;10.088;2023-09-07T06:22:23;9.07;;;2.80;;
23250;SDS011;11794;49.730;10.088;2023-09-07T06:24:48;10.13;;;3.30;;
23250;SDS011;11794;49.730;10.088;2023-09-07T06:27:14;6.60;;;2.72;;
23250;SDS011;11794;49.730;10.088;2023-09-07T06:29:40;9.03;;;2.87;;
23250;SDS011;11794;49.730;10.088;2023-09-07T06:32:05;8.60;;;2.50;;
23250;SDS011;11794;49.730;10.088;2023-09-07T06:34:31;8.18;;;2.80;;
23250;SDS011;11794;49.730;10.088;2023-09-07T06:36:56;7.30;;;2.67;;
23250;SDS011;11794;49.730;10.088;2023-09-07T06:39:22;7.60;;;2.70;;
23250;SDS011;11794;49.730;10.088;2023-09-07T06:41:47;6.93;;;2.78;;
23250;SDS011;11794;49.730;10.088;2023-09-07T06:44:13;6.40;;;2.27;;
23250;SDS011;11794;49.730;10.088;2023-09-07T06:46:39;7.32;;;2.72;;
23250;SDS011;11794;49.730;10.088;2023-09-07T06:49:05;7.95;;;2.72;;
23250;SDS011;11794;49.730;10.088;2023-09-07T06:51:31;7.33;;;2.60;;
23250;SDS011;11794;49.730;10.088;2023-09-07T06:53:56;6.72;;;2.50;;
23250;SDS011;11794;49.730;10.088;2023-09-07T06:56:22;6.57;;;2.30;;
23250;SDS011;11794;49.730;10.088;2023-09-07T06:58:48;8.15;;;2.63;;
23250;SDS011;11794;49.730;10.088;2023-09-07T07:01:13;7.67;;;2.83;;
23250;SDS011;11794;49.730;10.088;2023-09-07T07:03:39;7.35;;;2.60;;
23250;SDS011;11794;49.730;10.088;2023-09-07T07:06:05;6.07;;;2.50;;
23250;SDS011;11794;49.730;10.088;2023-09-07T07:08:30;7.55;;;2.42;;
23250;SDS011;11794;49.730;10.088;2023-09-07T07:10:56;6.93;;;2.40;;
23250;SDS011;11794;49.730;10.088;2023-09-07T07:13:21;7.10;;;2.58;;
23250;SDS011;11794;49.730;10.088;2023-09-07T07:15:47;6.33;;;2.57;;
23250;SDS011;11794;49.730;10.088;2023-09-07T07:18:13;6.65;;;2.58;;
23250;SDS011;11794;49.730;10.088;2023-09-07T07:20:39;7.17;;;2.57;;
23250;SDS011;11794;49.730;10.088;2023-09-07T07:23:06;5.75;;;2.55;;
23250;SDS011;11794;49.730;10.088;2023-09-07T07:25:32;8.18;;;2.40;;
23250;SDS011;11794;49.730;10.088;2023-09-07T07:27:59;7.55;;;2.35;;
23250;SDS011;11794;49.730;10.088;2023-09-07T07:30:31;6.72;;;2.38;;
23250;SDS011;11794;49.730;10.088;2023-09-07T07:32:57;7.03;;;2.60;;
23250;SDS011;11794;49.730;10.088;2023-09-07T07:35:23;6.53;;;2.40;;
23250;SDS011;11794;49.730;10.088;2023-09-07T07:37:52;7.57;;;2.67;;
23250;SDS011;11794;49.730;10.088;2023-09-07T07:40:17;9.68;;;2.70;;
23250;SDS011;11794;49.730;10.088;2023-09-07T07:42:44;6.53;;;3.20;;
23250;SDS011;11794;49.730;10.088;2023-09-07T07:45:11;8.00;;;2.58;;
23250;SDS011;11794;49.730;10.088;2023-09-07T07:47:37;6.45;;;2.10;;
23250;SDS011;11794;49.730;10.088;2023-09-07T07:50:03;5.40;;;2.40;;
23250;SDS011;11794;49.730;10.088;2023-09-07T07:52:29;6.00;;;2.40;;
23250;SDS011;11794;49.730;10.088;2023-09-07T07:54:55;6.50;;;2.65;;
23250;SDS011;11794;49.730;10.088;2023-09-07T07:57:21;6.43;;;2.40;;
23250;SDS011;11794;49.730;10.088;2023-09-07T07:59:46;6.40;;;2.55;;
23250;SDS011;11794;49.730;10.088;2023-09-07T08:02:12;6.33;;;2.37;;
23250;SDS011;11794;49.730;10.088;2023-09-07T08:04:37;5.80;;;2.40;;
23250;SDS011;11794;49.730;10.088;2023-09-07T08:07:03;6.93;;;2.60;;
23250;SDS011;11794;49.730;10.088;2023-09-07T08:09:31;6.93;;;2.40;;
23250;SDS011;11794;49.730;10.088;2023-09-07T08:11:57;6.13;;;2.42;;
23250;SDS011;11794;49.730;10.088;2023-09-07T08:14:23;6.50;;;3.10;;
23250;SDS011;11794;49.730;10.088;2023-09-07T08:16:50;7.13;;;2.53;;
23250;SDS011;11794;49.730;10.088;2023-09-07T08:19:15;5.67;;;2.33;;
23250;SDS011;11794;49.730;10.088;2023-09-07T08:21:41;6.43;;;2.60;;
23250;SDS011;11794;49.730;10.088;2023-09-07T08:24:07;6.47;;;2.78;;
23250;SDS011;11794;49.730;10.088;2023-09-07T08:26:33;6.18;;;2.85;;
23250;SDS011;11794;49.730;10.088;2023-09-07T08:29:00;8.13;;;2.70;;
23250;SDS011;11794;49.730;10.088;2023-09-07T08:31:30;6.38;;;2.70;;
23250;SDS011;11794;49.730;10.088;2023-09-07T08:33:59;5.57;;;2.67;;
23250;SDS011;11794;49.730;10.088;2023-09-07T08:36:29;6.50;;;2.63;;
23250;SDS011;11794;49.730;10.088;2023-09-07T08:38:58;8.35;;;2.78;;
23250;SDS011;11794;49.730;10.088;2023-09-07T08:41:36;6.23;;;2.67;;
23250;SDS011;11794;49.730;10.088;2023-09-07T08:44:07;6.00;;;2.40;;
23250;SDS011;11794;49.730;10.088;2023-09-07T08:46:33;7.05;;;3.00;;
23250;SDS011;11794;49.730;10.088;2023-09-07T08:49:00;6.38;;;3.08;;
23250;SDS011;11794;49.730;10.088;2023-09-07T08:51:27;5.35;;;2.63;;
23250;SDS011;11794;49.730;10.088;2023-09-07T08:53:56;6.75;;;2.92;;
23250;SDS011;11794;49.730;10.088;2023-09-07T08:56:22;7.05;;;2.55;;
23250;SDS011;11794;49.730;10.088;2023-09-07T08:58:48;6.18;;;3.17;;
23250;SDS011;11794;49.730;10.088;2023-09-07T09:01:17;8.48;;;3.13;;
23250;SDS011;11794;49.730;10.088;2023-09-07T09:03:43;6.15;;;2.95;;
23250;SDS011;11794;49.730;10.088;2023-09-07T09:06:11;5.60;;;2.77;;
23250;SDS011;11794;49.730;10.088;2023-09-07T09:08:42;5.93;;;2.78;;
23250;SDS011;11794;49.730;10.088;2023-09-07T09:11:09;6.65;;;2.50;;
23250;SDS011;11794;49.730;10.088;2023-09-07T09:13:35;5.65;;;2.55;;
23250;SDS011;11794;49.730;10.088;2023-09-07T09:16:01;8.15;;;2.72;;
23250;SDS011;11794;49.730;10.088;2023-09-07T09:18:27;6.00;;;2.90;;
23250;SDS011;11794;49.730;10.088;2023-09-07T09:20:54;8.10;;;2.70;;
23250;SDS011;11794;49.730;10.088;2023-09-07T09:23:20;7.55;;;3.20;;
23250;SDS011;11794;49.730;10.088;2023-09-07T09:25:47;6.27;;;2.90;;
23250;SDS011;11794;49.730;10.088;2023-09-07T09:28:14;5.30;;;2.77;;
23250;SDS011;11794;49.730;10.088;2023-09-07T09:30:40;6.22;;;2.78;;
23250;SDS011;11794;49.730;10.088;2023-09-07T09:33:08;6.78;;;2.70;;
23250;SDS011;11794;49.730;10.088;2023-09-07T09:35:34;8.65;;;2.63;;
23250;SDS011;11794;49.730;10.088;2023-09-07T09:38:01;5.90;;;2.88;;
23250;SDS011;11794;49.730;10.088;2023-09-07T09:40:33;5.73;;;3.20;;
23250;SDS011;11794;49.730;10.088;2023-09-07T09:43:02;6.43;;;2.90;;
23250;SDS011;11794;49.730;10.088;2023-09-07T09:45:28;6.22;;;3.10;;
23250;SDS011;11794;49.730;10.088;2023-09-07T09:47:54;6.30;;;2.83;;
23250;SDS011;11794;49.730;10.088;2023-09-07T09:50:21;5.55;;;2.75;;
23250;SDS011;11794;49.730;10.088;2023-09-07T09:52:47;4.93;;;2.72;;
23250;SDS011;11794;49.730;10.088;2023-09-07T09:55:13;6.30;;;3.03;;
23250;SDS011;11794;49.730;10.088;2023-09-07T09:57:40;6.32;;;3.20;;
23250;SDS011;11794;49.730;10.088;2023-09-07T10:00:07;6.17;;;2.97;;
23250;SDS011;11794;49.730;10.088;2023-09-07T10:03:10;6.07;;;2.38;;
23250;SDS011;11794;49.730;10.088;2023-09-07T10:05:39;6.05;;;2.70;;
23250;SDS011;11794;49.730;10.088;2023-09-07T10:08:08;5.82;;;3.10;;
23250;SDS011;11794;49.730;10.088;2023-09-07T10:10:36;5.43;;;3.00;;
23250;SDS011;11794;49.730;10.088;2023-09-07T10:13:03;6.50;;;2.75;;
23250;SDS011;11794;49.730;10.088;2023-09-07T10:15:30;6.82;;;2.67;;
23250;SDS011;11794;49.730;10.088;2023-09-07T10:18:04;5.97;;;2.70;;
23250;SDS011;11794;49.730;10.088;2023-09-07T10:20:50;5.20;;;2.73;;
23250;SDS011;11794;49.730;10.088;2023-09-07T10:23:16;5.22;;;3.00;;
23250;SDS011;11794;49.730;10.088;2023-09-07T10:25:42;5.80;;;3.03;;
23250;SDS011;11794;49.730;10.088;2023-09-07T10:30:45;7.05;;;3.55;;
23250;SDS011;11794;49.730;10.088;2023-09-07T10:33:22;5.70;;;3.13;;
23250;SDS011;11794;49.730;10.088;2023-09-07T10:35:47;6.00;;;3.00;;
23250;SDS011;11794;49.730;10.088;2023-09-07T10:38:13;5.33;;;2.67;;
23250;SDS011;11794;49.730;10.088;2023-09-07T10:40:39;5.82;;;3.25;;
23250;SDS011;11794;49.730;10.088;2023-09-07T10:43:06;5.30;;;3.13;;
23250;SDS011;11794;49.730;10.088;2023-09-07T10:45:33;6.05;;;3.17;;
23250;SDS011;11794;49.730;10.088;2023-09-07T10:47:59;5.93;;;3.42;;
23250;SDS011;11794;49.730;10.088;2023-09-07T10:50:24;5.70;;;3.30;;
23250;SDS011;11794;49.730;10.088;2023-09-07T10:52:50;5.95;;;3.33;;
23250;SDS011;11794;49.730;10.088;2023-09-07T10:55:16;5.43;;;2.70;;
23250;SDS011;11794;49.730;10.088;2023-09-07T10:57:45;4.90;;;2.90;;
23250;SDS011;11794;49.730;10.088;2023-09-07T11:00:12;6.68;;;2.90;;
23250;SDS011;11794;49.730;10.088;2023-09-07T11:02:39;6.03;;;2.92;;
23250;SDS011;11794;49.730;10.088;2023-09-07T11:05:08;6.15;;;3.72;;
23250;SDS011;11794;49.730;10.088;2023-09-07T11:07:34;5.28;;;2.95;;
23250;SDS011;11794;49.730;10.088;2023-09-07T11:10:01;6.00;;;3.08;;
23250;SDS011;11794;49.730;10.088;2023-09-07T11:12:29;5.32;;;3.03;;
23250;SDS011;11794;49.730;10.088;2023-09-07T11:14:54;6.87;;;3.33;;
23250;SDS011;11794;49.730;10.088;2023-09-07T11:17:25;6.88;;;3.28;;
23250;SDS011;11794;49.730;10.088;2023-09-07T11:19:52;5.53;;;3.15;;
23250;SDS011;11794;49.730;10.088;2023-09-07T11:22:18;5.68;;;2.67;;
23250;SDS011;11794;49.730;10.088;2023-09-07T11:24:44;5.57;;;2.90;;
23250;SDS011;11794;49.730;10.088;2023-09-07T11:27:10;5.88;;;3.00;;
23250;SDS011;11794;49.730;10.088;2023-09-07T11:29:36;5.32;;;3.20;;
23250;SDS011;11794;49.730;10.088;2023-09-07T11:32:09;7.57;;;3.40;;
23250;SDS011;11794;49.730;10.088;2023-09-07T11:34:35;5.40;;;3.30;;
23250;SDS011;11794;49.730;10.088;2023-09-07T11:37:12;5.55;;;2.70;;
23250;SDS011;11794;49.730;10.088;2023-09-07T11:39:37;4.70;;;2.50;;
23250;SDS011;11794;49.730;10.088;2023-09-07T11:42:03;5.80;;;3.30;;
23250;SDS011;11794;49.730;10.088;2023-09-07T11:44:29;5.50;;;3.03;;
23250;SDS011;11794;49.730;10.088;2023-09-07T11:46:54;5.30;;;3.10;;
23250;SDS011;11794;49.730;10.088;2023-09-07T11:49:20;6.57;;;3.25;;
23250;SDS011;11794;49.730;10.088;2023-09-07T11:51:46;5.07;;;2.87;;
23250;SDS011;11794;49.730;10.088;2023-09-07T11:54:12;5.65;;;3.50;;
23250;SDS011;11794;49.730;10.088;2023-09-07T11:56:38;6.88;;;3.42;;
23250;SDS011;11794;49.730;10.088;2023-09-07T11:59:07;5.00;;;3.00;;
23250;SDS011;11794;49.730;10.088;2023-09-07T12:01:34;6.63;;;3.20;;
23250;SDS011;11794;49.730;10.088;2023-09-07T12:03:59;5.27;;;3.00;;
23250;SDS011;11794;49.730;10.088;2023-09-07T12:06:25;5.73;;;3.17;;
23250;SDS011;11794;49.730;10.088;2023-09-07T12:09:02;7.22;;;3.05;;
23250;SDS011;11794;49.730;10.088;2023-09-07T12:11:29;6.60;;;3.50;;
23250;SDS011;11794;49.730;10.088;2023-09-07T12:13:55;5.85;;;3.47;;
23250;SDS011;11794;49.730;10.088;2023-09-07T12:16:21;5.57;;;3.50;;
23250;SDS011;11794;49.730;10.088;2023-09-07T12:18:47;6.55;;;3.33;;
23250;SDS011;11794;49.730;10.088;2023-09-07T12:21:13;7.27;;;3.30;;
23250;SDS011;11794;49.730;10.088;2023-09-07T12:23:38;6.30;;;3.63;;
23250;SDS011;11794;49.730;10.088;2023-09-07T12:26:04;6.40;;;3.20;;
23250;SDS011;11794;49.730;10.088;2023-09-07T12:28:30;5.40;;;3.20;;
23250;SDS011;11794;49.730;10.088;2023-09-07T12:30:56;5.53;;;3.25;;
23250;SDS011;11794;49.730;10.088;2023-09-07T12:33:23;5.82;;;3.53;;
23250;SDS011;11794;49.730;10.088;2023-09-07T12:35:48;6.15;;;3.60;;
23250;SDS011;11794;49.730;10.088;2023-09-07T12:38:14;6.20;;;3.77;;
23250;SDS011;11794;49.730;10.088;2023-09-07T12:40:43;5.90;;;3.35;;
23250;SDS011;11794;49.730;10.088;2023-09-07T12:43:09;6.22;;;3.35;;
23250;SDS011;11794;49.730;10.088;2023-09-07T12:45:34;7.33;;;3.50;;
23250;SDS011;11794;49.730;10.088;2023-09-07T12:48:00;5.90;;;3.50;;
23250;SDS011;11794;49.730;10.088;2023-09-07T12:50:26;5.67;;;3.30;;
23250;SDS011;11794;49.730;10.088;2023-09-07T12:52:52;5.32;;;3.55;;
23250;SDS011;11794;49.730;10.088;2023-09-07T12:55:19;6.05;;;4.03;;
23250;SDS011;11794;49.730;10.088;2023-09-07T12:57:45;5.55;;;3.15;;
23250;SDS011;11794;49.730;10.088;2023-09-07T13:00:10;5.23;;;3.10;;
23250;SDS011;11794;49.730;10.088;2023-09-07T13:02:36;5.10;;;3.38;;
23250;SDS011;11794;49.730;10.088;2023-09-07T13:05:02;6.72;;;3.60;;
23250;SDS011;11794;49.730;10.088;2023-09-07T13:07:31;5.55;;;3.50;;
23250;SDS011;11794;49.730;10.088;2023-09-07T13:10:00;7.47;;;3.60;;
23250;SDS011;11794;49.730;10.088;2023-09-07T13:12:30;9.07;;;4.43;;
23250;SDS011;11794;49.730;10.088;2023-09-07T13:14:57;11.68;;;4.78;;
23250;SDS011;11794;49.730;10.088;2023-09-07T13:17:22;6.03;;;3.80;;
23250;SDS011;11794;49.730;10.088;2023-09-07T13:19:48;6.03;;;3.40;;
23250;SDS011;11794;49.730;10.088;2023-09-07T13:22:13;5.20;;;3.40;;
23250;SDS011;11794;49.730;10.088;2023-09-07T13:24:39;5.53;;;4.05;;
23250;SDS011;11794;49.730;10.088;2023-09-07T13:27:05;5.77;;;3.63;;
23250;SDS011;11794;49.730;10.088;2023-09-07T13:29:31;5.55;;;3.47;;
23250;SDS011;11794;49.730;10.088;2023-09-07T13:31:57;5.53;;;3.60;;
23250;SDS011;11794;49.730;10.088;2023-09-07T13:34:23;5.80;;;3.55;;
23250;SDS011;11794;49.730;10.088;2023-09-07T13:36:49;6.20;;;3.83;;
23250;SDS011;11794;49.730;10.088;2023-09-07T13:39:14;6.60;;;3.77;;
23250;SDS011;11794;49.730;10.088;2023-09-07T13:41:40;7.50;;;3.50;;
23250;SDS011;11794;49.730;10.088;2023-09-07T13:44:06;5.43;;;3.78;;
23250;SDS011;11794;49.730;10.088;2023-09-07T13:46:31;6.00;;;3.57;;
23250;SDS011;11794;49.730;10.088;2023-09-07T13:48:57;6.15;;;3.90;;
23250;SDS011;11794;49.730;10.088;2023-09-07T13:51:23;7.07;;;3.90;;
23250;SDS011;11794;49.730;10.088;2023-09-07T13:53:49;9.73;;;4.03;;
23250;SDS011;11794;49.730;10.088;2023-09-07T13:56:15;5.57;;;3.45;;
23250;SDS011;11794;49.730;10.088;2023-09-07T13:58:41;6.32;;;3.80;;
23250;SDS011;11794;49.730;10.088;2023-09-07T14:01:06;5.67;;;3.70;;
23250;SDS011;11794;49.730;10.088;2023-09-07T14:03:32;6.15;;;3.60;;
23250;SDS011;11794;49.730;10.088;2023-09-07T14:05:57;7.77;;;3.93;;
23250;SDS011;11794;49.730;10.088;2023-09-07T14:08:23;6.43;;;3.60;;
23250;SDS011;11794;49.730;10.088;2023-09-07T14:10:52;5.70;;;3.30;;
23250;SDS011;11794;49.730;10.088;2023-09-07T14:13:18;5.47;;;3.88;;
23250;SDS011;11794;49.730;10.088;2023-09-07T14:15:43;6.35;;;3.60;;
23250;SDS011;11794;49.730;10.088;2023-09-07T14:18:09;5.55;;;3.42;;
23250;SDS011;11794;49.730;10.088;2023-09-07T14:20:35;5.40;;;3.67;;
23250;SDS011;11794;49.730;10.088;2023-09-07T14:23:01;5.72;;;2.95;;
23250;SDS011;11794;49.730;10.088;2023-09-07T14:25:27;5.85;;;3.63;;
23250;SDS011;11794;49.730;10.088;2023-09-07T14:27:52;6.97;;;3.40;;
23250;SDS011;11794;49.730;10.088;2023-09-07T14:30:18;5.70;;;3.30;;
23250;SDS011;11794;49.730;10.088;2023-09-07T14:32:44;6.77;;;3.33;;